West Helena, AR (72390)

9:52 AM CDT on May 04, 2015 (GMT -0500)
marianna,arrkansas | | Change Station
CLOSE
Current Station
Personal Weather Station
Location: Marianna, AR
Elevation: 230 ft
Nearby Weather Stations

Elev 230 ft 34.77 °N, 90.77 °W | Updated 2 minutes ago

Clear
Clear
75.4 °F
Feels Like 77 °F
N
4.2
Wind Variable Wind from SW

Today
High -- | Low -- °F
--% Chance of Precip.
Yesterday
High -- | Low -- °F
Precip. -- in
6:09 AM 7:49 PM
Full, 100% visible
Pressure 30.23 in
Visibility -9999.0 miles
Clouds Clear
Heat Index 77 °F
Dew Point 64 °F
Humidity 67%
Rainfall 0.00 in
Snow Depth Not available.
UV 5 out of 12
Pollen 7.70 out of 12
Air Quality Not available.
Flu Activity No Activity
METAR KCKM 041435Z AUTO 18006KT CLR 23/16 A3023 RMK AO1

More Conditions Fewer Conditions

Pressure 30.23 in
Visibility -9999.0 miles
Clouds Clear
Heat Index 77 °F
Dew Point 64 °F
Humidity 67%
Rainfall 0.00 in
Snow Depth Not available.
UV 5 out of 12
Pollen 7.70 out of 12
Air Quality Not available.
Flu Activity No Activity
METAR KCKM 041435Z AUTO 18006KT CLR 23/16 A3023 RMK AO1

More Conditions Fewer Conditions

Nepal has a long way to go to dig out and rebuild from a devastating earthquake. We have teamed up with several charities and organizations to make contributing to the relief effort as easy as possible.
How you can help: Portlight Strategies | Red Cross

10-Day Weather Forecast

Almanac

Astronomy

May. 04, 2015 Rise Set
Actual Time
Civil Twilight
Nautical Twilight
Astronomical Twilight
Moon
Length of Visible Light
Length of Day
Tomorrow will be .
, % of the Moon is Illuminated

Today's Extremes

State Highs State Lows

Community

WunderPhotos

Upload Photos

1,818,620 photos uploaded!

WunderBlogs® & News

Nearby

Air Quality

  Air Quality AQ Index Pollutant
Not available.

Snow Depth

Station Depth Elevation

Earthquake Activity

City Distance Mag. Time & Date
Minimum magnitude displayed is 2.5.

Coastal Water Temperatures

Place Temperature

Stations

Nearby Weather Stations

Station Location Temp. Windchill Dew Point Humidity Wind Precip. Elev Updated Type